createdAt,value
2018-04-14T00:01:59.013Z,10.67
2018-04-14T00:04:26.486Z,10.50
2018-04-14T00:06:53.942Z,12.20
2018-04-14T00:09:21.407Z,11.27
2018-04-14T00:11:48.882Z,15.07
2018-04-14T00:14:16.376Z,26.70
2018-04-14T00:16:43.886Z,12.33
2018-04-14T00:19:11.391Z,10.90
2018-04-14T00:21:38.873Z,10.30
2018-04-14T00:24:06.385Z,11.93
2018-04-14T00:26:33.871Z,11.50
2018-04-14T00:29:01.409Z,10.63
2018-04-14T00:31:28.903Z,11.03
2018-04-14T00:33:56.393Z,10.90
2018-04-14T00:36:23.911Z,11.50
2018-04-14T00:38:51.432Z,11.90
2018-04-14T00:41:18.937Z,11.50
2018-04-14T00:43:46.441Z,11.90
2018-04-14T00:46:13.944Z,12.60
2018-04-14T00:48:41.410Z,14.00
2018-04-14T00:51:08.902Z,16.77
2018-04-14T00:53:47.389Z,15.43
2018-04-14T00:56:14.878Z,13.43
2018-04-14T00:58:42.351Z,11.50
2018-04-14T01:01:09.851Z,13.93
2018-04-14T01:03:37.363Z,12.17
2018-04-14T01:06:04.859Z,12.93
2018-04-14T01:08:32.388Z,13.40
2018-04-14T01:10:59.887Z,13.83
2018-04-14T01:13:27.367Z,11.80
2018-04-14T01:15:54.872Z,14.40
2018-04-14T01:18:22.381Z,14.17
2018-04-14T01:20:50.023Z,13.50
2018-04-14T01:23:17.542Z,16.83
2018-04-14T01:25:45.133Z,13.77
2018-04-14T01:28:12.638Z,14.93
2018-04-14T01:30:40.207Z,16.30
2018-04-14T01:33:07.696Z,16.63
2018-04-14T01:35:35.171Z,15.47
2018-04-14T01:38:02.667Z,19.33
2018-04-14T01:40:30.141Z,20.70
2018-04-14T01:42:57.623Z,15.47
2018-04-14T01:45:25.100Z,16.03
2018-04-14T01:47:52.589Z,19.40
2018-04-14T01:50:20.121Z,17.47
2018-04-14T01:52:47.666Z,17.00
2018-04-14T01:55:15.164Z,19.80
2018-04-14T01:57:42.672Z,18.97
2018-04-14T02:00:10.168Z,19.47
2018-04-14T02:02:37.666Z,18.23
2018-04-14T02:05:05.178Z,17.37
2018-04-14T02:07:32.655Z,21.10
2018-04-14T02:10:00.140Z,21.30
2018-04-14T02:12:27.620Z,18.30
2018-04-14T02:14:55.244Z,18.33
2018-04-14T02:17:22.707Z,19.67
2018-04-14T02:19:50.175Z,20.60
2018-04-14T02:22:17.665Z,20.00
2018-04-14T02:24:45.124Z,21.23
2018-04-14T02:27:12.575Z,19.83
2018-04-14T02:29:40.089Z,21.20
2018-04-14T02:32:07.692Z,18.47
2018-04-14T02:34:35.239Z,19.90
2018-04-14T02:37:02.738Z,19.90
2018-04-14T02:39:30.192Z,21.20
2018-04-14T02:41:57.697Z,21.03
2018-04-14T02:44:25.194Z,20.63
2018-04-14T02:46:52.728Z,19.00
2018-04-14T02:49:20.272Z,20.87
2018-04-14T02:51:47.751Z,21.30
2018-04-14T02:54:15.304Z,22.20
2018-04-14T02:56:42.860Z,23.60
2018-04-14T02:59:10.433Z,23.70
2018-04-14T03:01:38.007Z,22.23
2018-04-14T03:04:05.497Z,23.67
2018-04-14T03:06:32.997Z,21.67
2018-04-14T03:09:00.477Z,23.30
2018-04-14T03:11:27.955Z,22.90
2018-04-14T03:13:55.490Z,23.07
2018-04-14T03:16:22.984Z,22.40
2018-04-14T03:18:50.517Z,24.20
2018-04-14T03:21:17.980Z,24.87
2018-04-14T03:23:45.506Z,25.20
2018-04-14T03:26:13.015Z,25.77
2018-04-14T03:28:40.498Z,25.60
2018-04-14T03:31:08.047Z,26.67
2018-04-14T03:33:35.559Z,24.50
2018-04-14T03:36:03.071Z,27.27
2018-04-14T03:38:30.527Z,25.40
2018-04-14T03:40:57.985Z,25.80
2018-04-14T03:43:25.499Z,27.00
2018-04-14T03:45:52.989Z,26.37
2018-04-14T03:48:20.449Z,27.60
2018-04-14T03:50:47.958Z,27.47
2018-04-14T03:53:15.449Z,23.70
2018-04-14T03:55:42.964Z,20.50
2018-04-14T03:58:10.466Z,19.90
2018-04-14T04:00:37.987Z,18.73
2018-04-14T04:03:05.489Z,21.80
2018-04-14T04:05:32.977Z,19.77
2018-04-14T04:08:00.447Z,20.50
2018-04-14T04:10:27.976Z,19.00
2018-04-14T04:12:55.477Z,21.70
2018-04-14T04:15:22.949Z,23.60
2018-04-14T04:17:50.428Z,22.50
2018-04-14T04:23:36.494Z,22.10
2018-04-14T04:26:03.963Z,25.07
2018-04-14T04:28:31.454Z,16.50
2018-04-14T04:30:58.948Z,20.57
2018-04-14T04:33:26.412Z,19.93
2018-04-14T04:35:53.868Z,17.57
2018-04-14T04:38:21.393Z,20.13
2018-04-14T04:40:48.896Z,17.93
2018-04-14T04:43:16.356Z,18.53
2018-04-14T04:45:43.869Z,20.67
2018-04-14T04:48:11.337Z,20.87
2018-04-14T04:50:38.833Z,23.20
2018-04-14T04:53:06.372Z,23.10
2018-04-14T04:55:33.847Z,25.00
2018-04-14T04:58:01.377Z,25.43
2018-04-14T05:00:28.880Z,24.87
2018-04-14T05:02:56.348Z,29.73
2018-04-14T05:05:23.903Z,28.77
2018-04-14T05:07:51.420Z,33.10
2018-04-14T05:10:18.916Z,31.70
2018-04-14T05:12:46.375Z,32.23
2018-04-14T05:15:13.876Z,34.63
2018-04-14T05:17:41.368Z,35.43
2018-04-14T05:20:08.955Z,35.80
2018-04-14T05:22:36.510Z,34.97
2018-04-14T05:25:04.000Z,35.80
2018-04-14T05:27:31.472Z,37.33
2018-04-14T05:29:58.968Z,42.10
2018-04-14T05:32:26.496Z,38.07
2018-04-14T05:34:53.961Z,38.60
2018-04-14T05:37:21.458Z,34.03
2018-04-14T05:39:48.988Z,37.60
2018-04-14T05:42:16.485Z,31.80
2018-04-14T05:44:44.004Z,31.70
2018-04-14T05:47:11.475Z,35.20
2018-04-14T05:49:38.923Z,37.30
2018-04-14T05:52:06.391Z,35.40
2018-04-14T05:54:33.847Z,36.07
2018-04-14T05:57:01.335Z,33.73
2018-04-14T05:59:28.787Z,31.73
2018-04-14T06:01:56.240Z,30.83
2018-04-14T06:04:23.705Z,37.73
2018-04-14T06:06:51.202Z,35.83
2018-04-14T06:09:18.681Z,34.47
2018-04-14T06:11:46.151Z,35.47
2018-04-14T06:14:13.737Z,31.10
2018-04-14T06:16:41.216Z,31.70
2018-04-14T06:19:08.669Z,34.60
2018-04-14T06:21:36.158Z,30.00
2018-04-14T06:24:03.689Z,30.73
2018-04-14T06:26:31.177Z,30.10
2018-04-14T06:28:58.739Z,30.60
2018-04-14T06:31:26.235Z,30.03
2018-04-14T06:33:53.758Z,29.90
2018-04-14T06:36:21.246Z,31.57
2018-04-14T06:38:48.737Z,30.47
2018-04-14T06:41:16.187Z,32.30
2018-04-14T06:43:43.717Z,38.00
2018-04-14T06:46:11.207Z,32.10
2018-04-14T06:48:38.735Z,35.67
2018-04-14T06:51:06.224Z,32.87
2018-04-14T06:53:33.710Z,37.37
2018-04-14T06:56:01.171Z,36.30
2018-04-14T06:58:28.664Z,39.70
2018-04-14T07:00:56.192Z,38.27
2018-04-14T07:03:23.648Z,39.53
2018-04-14T07:05:51.168Z,41.00
2018-04-14T07:08:18.627Z,42.07
2018-04-14T07:10:46.133Z,41.53
2018-04-14T07:13:13.688Z,39.47
2018-04-14T07:15:41.154Z,42.60
2018-04-14T07:18:08.670Z,42.77
2018-04-14T07:20:36.161Z,45.00
2018-04-14T07:23:03.638Z,41.17
2018-04-14T07:25:31.184Z,43.43
2018-04-14T07:27:58.682Z,45.83
2018-04-14T07:30:26.238Z,41.90
2018-04-14T07:32:53.753Z,42.60
2018-04-14T07:35:21.266Z,44.33
2018-04-14T07:37:48.768Z,45.40
2018-04-14T07:40:16.812Z,43.23
2018-04-14T07:42:44.278Z,48.10
2018-04-14T07:45:11.778Z,46.67
2018-04-14T07:47:39.347Z,46.07
2018-04-14T07:50:06.831Z,48.97
2018-04-14T07:52:34.362Z,46.60
2018-04-14T07:55:01.941Z,49.07
2018-04-14T07:57:29.407Z,54.50
2018-04-14T07:59:56.905Z,46.13
2018-04-14T08:02:24.401Z,53.70
2018-04-14T08:04:51.883Z,52.87
2018-04-14T08:07:19.358Z,52.10
2018-04-14T08:09:46.820Z,52.90
2018-04-14T08:12:14.309Z,48.73
2018-04-14T08:14:41.828Z,52.00
2018-04-14T08:17:09.361Z,51.30
2018-04-14T08:19:36.847Z,51.97
2018-04-14T08:22:04.329Z,51.10
2018-04-14T08:24:31.910Z,54.07
2018-04-14T08:26:59.421Z,54.30
2018-04-14T08:29:26.926Z,51.80
2018-04-14T08:31:54.413Z,48.93
2018-04-14T08:34:21.928Z,54.70
2018-04-14T08:36:49.488Z,50.70
2018-04-14T08:39:17.075Z,54.10
2018-04-14T08:41:44.577Z,49.97
2018-04-14T08:44:12.190Z,54.43
2018-04-14T08:46:39.687Z,50.17
2018-04-14T08:49:07.181Z,47.50
2018-04-14T08:51:34.695Z,47.77
2018-04-14T08:54:02.196Z,48.27
2018-04-14T08:56:30.636Z,48.60
2018-04-14T08:58:58.149Z,47.00
2018-04-14T09:01:25.619Z,45.80
2018-04-14T09:03:53.110Z,44.23
2018-04-14T09:06:20.626Z,46.20
2018-04-14T09:08:48.093Z,41.10
2018-04-14T09:11:15.583Z,50.10
2018-04-14T09:13:43.072Z,44.23
2018-04-14T09:16:10.682Z,45.50
2018-04-14T09:18:38.335Z,42.90
2018-04-14T09:21:05.868Z,38.83
2018-04-14T09:23:33.337Z,42.57
2018-04-14T09:26:00.866Z,38.00
2018-04-14T09:28:28.330Z,40.03
2018-04-14T09:30:55.900Z,42.80
2018-04-14T09:33:23.422Z,39.33
2018-04-14T09:35:50.932Z,40.33
2018-04-14T09:38:18.436Z,38.43
2018-04-14T09:40:45.937Z,38.77
2018-04-14T09:43:13.438Z,34.90
2018-04-14T09:45:40.947Z,36.00
2018-04-14T09:48:08.481Z,35.30
2018-04-14T09:50:35.947Z,30.17
2018-04-14T09:53:03.400Z,31.70
2018-04-14T09:55:30.995Z,33.50
2018-04-14T09:57:58.480Z,31.20
2018-04-14T10:00:27.826Z,29.17
2018-04-14T10:03:00.410Z,26.83
2018-04-14T10:05:27.827Z,27.00
2018-04-14T10:07:55.308Z,31.70
2018-04-14T10:10:22.859Z,26.27
2018-04-14T10:12:50.283Z,22.00
2018-04-14T10:15:17.751Z,24.90
2018-04-14T10:17:45.257Z,23.83
2018-04-14T10:20:12.799Z,25.37
2018-04-14T10:22:40.312Z,24.53
2018-04-14T10:25:07.823Z,25.70
2018-04-14T10:27:35.366Z,24.50
2018-04-14T10:30:02.834Z,25.10
2018-04-14T10:32:30.354Z,25.80
2018-04-14T10:34:57.823Z,25.57
2018-04-14T10:37:25.322Z,24.47
2018-04-14T10:39:52.835Z,25.40
2018-04-14T10:42:20.303Z,23.77
2018-04-14T10:44:47.786Z,23.73
2018-04-14T10:47:15.290Z,24.93
2018-04-14T10:49:42.779Z,24.40
2018-04-14T10:52:10.317Z,23.83
2018-04-14T10:54:37.859Z,24.60
2018-04-14T10:57:05.371Z,24.60
2018-04-14T10:59:32.927Z,24.20
2018-04-14T11:02:00.432Z,23.43
2018-04-14T11:04:27.901Z,24.17
2018-04-14T11:06:55.488Z,25.77
2018-04-14T11:09:22.990Z,24.53
2018-04-14T11:11:50.572Z,26.23
2018-04-14T11:14:18.036Z,26.23
2018-04-14T11:16:45.632Z,25.23
2018-04-14T11:19:13.117Z,24.60
2018-04-14T11:21:40.607Z,24.90
2018-04-14T11:24:08.116Z,23.70
2018-04-14T11:26:35.757Z,26.67
2018-04-14T11:29:03.226Z,24.00
2018-04-14T11:31:30.715Z,22.23
2018-04-14T11:33:58.324Z,24.40
2018-04-14T11:36:25.850Z,22.83
2018-04-14T11:38:53.325Z,22.90
2018-04-14T11:41:20.821Z,24.20
2018-04-14T11:43:48.305Z,23.43
2018-04-14T11:46:15.781Z,23.93
2018-04-14T11:48:43.313Z,23.53
2018-04-14T11:51:10.805Z,23.50
2018-04-14T11:53:38.315Z,25.13
2018-04-14T11:56:05.842Z,22.60
2018-04-14T11:58:33.356Z,23.97
2018-04-14T12:01:00.864Z,22.63
2018-04-14T12:03:28.421Z,23.43
2018-04-14T12:05:55.871Z,23.47
2018-04-14T12:08:23.445Z,23.03
2018-04-14T12:10:50.982Z,23.43
2018-04-14T12:13:18.472Z,24.27
2018-04-14T12:15:45.972Z,25.37
2018-04-14T12:18:13.447Z,25.63
2018-04-14T12:20:40.908Z,28.03
2018-04-14T12:23:08.465Z,29.97
2018-04-14T12:25:35.962Z,34.97
2018-04-14T12:28:03.418Z,37.73
2018-04-14T12:30:30.908Z,34.67
2018-04-14T12:32:58.396Z,35.93
2018-04-14T12:35:25.899Z,38.47
2018-04-14T12:37:59.884Z,34.93
2018-04-14T12:40:27.374Z,38.37
2018-04-14T12:42:54.864Z,35.60
2018-04-14T12:45:22.375Z,34.63
2018-04-14T12:47:49.875Z,36.03
2018-04-14T12:50:17.376Z,36.80
2018-04-14T12:52:44.958Z,37.37
2018-04-14T12:55:12.489Z,37.53
2018-04-14T12:57:39.999Z,34.93
2018-04-14T13:00:07.499Z,32.93
2018-04-14T13:02:35.004Z,36.57
2018-04-14T13:05:02.528Z,38.70
2018-04-14T13:07:30.097Z,37.13
2018-04-14T13:09:57.588Z,32.30
2018-04-14T13:12:25.056Z,35.20
2018-04-14T13:14:52.598Z,33.17
2018-04-14T13:17:20.064Z,35.07
2018-04-14T13:19:47.552Z,34.10
2018-04-14T13:22:15.075Z,36.23
2018-04-14T13:24:42.613Z,35.33
2018-04-14T13:27:10.104Z,35.80
2018-04-14T13:29:37.613Z,34.50
2018-04-14T13:32:05.063Z,40.73
2018-04-14T13:34:32.540Z,33.83
2018-04-14T13:37:00.056Z,34.57
2018-04-14T13:39:27.562Z,32.47
2018-04-14T13:41:55.061Z,31.60
2018-04-14T13:44:22.524Z,43.23
2018-04-14T13:46:49.976Z,33.13
2018-04-14T13:49:17.444Z,33.60
2018-04-14T13:51:45.018Z,34.47
2018-04-14T13:54:12.510Z,32.10
2018-04-14T13:56:40.013Z,32.10
2018-04-14T13:59:07.492Z,34.30
2018-04-14T14:01:34.984Z,30.77
2018-04-14T14:04:02.514Z,33.70
2018-04-14T14:06:29.980Z,30.73
2018-04-14T14:08:57.444Z,30.57
2018-04-14T14:11:24.950Z,31.60
2018-04-14T14:13:52.446Z,33.40
2018-04-14T14:16:19.920Z,31.40
2018-04-14T14:18:47.441Z,33.10
2018-04-14T14:21:14.937Z,30.63
2018-04-14T14:23:42.438Z,30.97
2018-04-14T14:26:09.919Z,32.33
2018-04-14T14:28:37.421Z,31.37
2018-04-14T14:31:04.914Z,33.80
2018-04-14T14:33:32.411Z,30.50
2018-04-14T14:35:59.882Z,31.43
2018-04-14T14:38:27.389Z,31.53
2018-04-14T14:40:54.914Z,28.13
2018-04-14T14:43:22.540Z,24.93
2018-04-14T14:45:50.091Z,28.73
2018-04-14T14:48:17.567Z,29.03
2018-04-14T14:50:45.044Z,33.43
2018-04-14T14:53:12.517Z,26.70
2018-04-14T14:55:39.988Z,30.50
2018-04-14T14:58:07.508Z,32.20
2018-04-14T15:00:35.074Z,30.97
2018-04-14T15:03:02.573Z,33.33
2018-04-14T15:05:30.085Z,30.90
2018-04-14T15:07:57.555Z,32.60
2018-04-14T15:10:25.041Z,32.10
2018-04-14T15:12:52.540Z,32.97
2018-04-14T15:15:20.061Z,32.33
2018-04-14T15:17:47.587Z,32.87
2018-04-14T15:20:15.074Z,32.20
2018-04-14T15:22:42.572Z,34.70
2018-04-14T15:25:10.064Z,32.70
2018-04-14T15:27:37.553Z,31.60
2018-04-14T15:30:05.071Z,28.70
2018-04-14T15:32:32.643Z,29.20
2018-04-14T15:35:00.221Z,28.97
2018-04-14T15:37:27.703Z,30.00
2018-04-14T15:39:55.154Z,29.90
2018-04-14T15:42:22.679Z,28.70
2018-04-14T15:44:50.161Z,29.03
2018-04-14T15:47:17.670Z,30.00
2018-04-14T15:49:45.203Z,29.83
2018-04-14T15:52:12.674Z,29.83
2018-04-14T15:54:40.146Z,30.17
2018-04-14T15:57:07.667Z,29.23
2018-04-14T15:59:35.268Z,29.50
2018-04-14T16:02:02.788Z,25.60
2018-04-14T16:04:30.333Z,27.43
2018-04-14T16:06:57.910Z,26.60
2018-04-14T16:09:25.596Z,25.50
2018-04-14T16:11:53.039Z,26.57
2018-04-14T16:14:20.565Z,29.13
2018-04-14T16:16:48.089Z,27.00
2018-04-14T16:19:15.575Z,27.03
2018-04-14T16:21:43.254Z,28.33
2018-04-14T16:24:10.756Z,29.97
2018-04-14T16:26:38.289Z,29.97
2018-04-14T16:29:05.837Z,30.23
2018-04-14T16:31:33.407Z,29.90
2018-04-14T16:34:00.964Z,29.83
2018-04-14T16:36:28.495Z,32.83
2018-04-14T16:38:55.998Z,34.00
2018-04-14T16:41:23.484Z,31.00
2018-04-14T16:43:50.980Z,28.90
2018-04-14T16:46:18.453Z,29.30
2018-04-14T16:48:46.244Z,34.47
2018-04-14T16:51:14.712Z,31.90
2018-04-14T16:53:42.456Z,29.43
2018-04-14T16:56:10.650Z,29.87
2018-04-14T16:58:38.533Z,30.60
2018-04-14T17:01:06.757Z,27.43
2018-04-14T17:03:34.251Z,31.87
2018-04-14T17:06:02.579Z,28.93
2018-04-14T17:08:30.085Z,30.87
2018-04-14T17:10:57.818Z,29.83
2018-04-14T17:13:25.991Z,32.10
2018-04-14T17:15:53.961Z,33.00
2018-04-14T17:18:21.705Z,38.47
2018-04-14T17:20:49.387Z,34.90
2018-04-14T17:23:17.797Z,31.10
2018-04-14T17:25:45.516Z,29.70
2018-04-14T17:28:13.000Z,30.10
2018-04-14T17:30:40.481Z,31.23
2018-04-14T17:33:07.989Z,30.37
2018-04-14T17:35:35.484Z,33.07
2018-04-14T17:38:02.995Z,30.60
2018-04-14T17:40:30.468Z,34.40
2018-04-14T17:42:58.023Z,30.63
2018-04-14T17:45:25.526Z,31.90
2018-04-14T17:47:52.990Z,34.20
2018-04-14T17:50:20.480Z,32.80
2018-04-14T17:52:47.959Z,38.60
2018-04-14T17:55:15.433Z,33.50
2018-04-14T17:57:42.977Z,35.97
2018-04-14T18:00:10.519Z,34.43
2018-04-14T18:02:38.010Z,35.70
2018-04-14T18:05:05.530Z,34.63
2018-04-14T18:07:33.187Z,35.20
2018-04-14T18:10:00.682Z,36.03
2018-04-14T18:12:28.160Z,34.57
2018-04-14T18:14:55.640Z,33.07
2018-04-14T18:17:23.196Z,35.50
2018-04-14T18:19:50.659Z,38.97
2018-04-14T18:22:18.191Z,37.93
2018-04-14T18:24:45.731Z,40.10
2018-04-14T18:27:13.213Z,41.33
2018-04-14T18:29:40.673Z,42.10
2018-04-14T18:32:08.148Z,43.53
2018-04-14T18:34:35.606Z,43.53
2018-04-14T18:37:03.082Z,47.10
2018-04-14T18:39:30.558Z,43.80
2018-04-14T18:41:58.136Z,45.23
2018-04-14T18:44:25.710Z,45.27
2018-04-14T18:46:53.221Z,47.33
2018-04-14T18:49:20.810Z,46.53
2018-04-14T18:51:48.280Z,48.00
2018-04-14T18:54:15.900Z,43.23
2018-04-14T18:56:43.398Z,48.50
2018-04-14T18:59:10.915Z,45.03
2018-04-14T19:01:38.442Z,44.87
2018-04-14T19:04:05.953Z,46.57
2018-04-14T19:06:33.541Z,44.83
2018-04-14T19:09:01.067Z,45.70
2018-04-14T19:11:28.659Z,48.53
2018-04-14T19:13:56.176Z,47.80
2018-04-14T19:16:23.706Z,44.20
2018-04-14T19:18:51.193Z,47.40
2018-04-14T19:21:18.671Z,47.13
2018-04-14T19:23:46.202Z,47.40
2018-04-14T19:26:13.753Z,49.17
2018-04-14T19:28:41.255Z,49.50
2018-04-14T19:31:08.733Z,48.07
2018-04-14T19:33:36.209Z,49.90
2018-04-14T19:36:03.715Z,48.53
2018-04-14T19:38:31.232Z,50.57
2018-04-14T19:40:58.805Z,48.97
2018-04-14T19:43:26.319Z,46.77
2018-04-14T19:45:53.839Z,45.60
2018-04-14T19:48:21.459Z,52.53
2018-04-14T19:50:48.971Z,51.53
2018-04-14T19:53:16.519Z,51.60
2018-04-14T19:55:44.018Z,51.93
2018-04-14T19:58:11.480Z,52.50
2018-04-14T20:00:39.060Z,53.73
2018-04-14T20:03:06.554Z,50.70
2018-04-14T20:05:34.026Z,51.73
2018-04-14T20:08:01.575Z,54.20
2018-04-14T20:10:29.168Z,48.87
2018-04-14T20:12:56.635Z,52.57
2018-04-14T20:15:24.097Z,48.53
2018-04-14T20:17:51.577Z,51.97
2018-04-14T20:20:19.067Z,49.47
2018-04-14T20:22:46.668Z,50.80
2018-04-14T20:25:14.203Z,48.67
2018-04-14T20:27:41.718Z,48.30
2018-04-14T20:30:09.260Z,49.40
2018-04-14T20:32:36.761Z,49.80
2018-04-14T20:35:04.284Z,51.03
2018-04-14T20:37:31.812Z,51.00
2018-04-14T20:39:59.268Z,56.80
2018-04-14T20:42:26.761Z,49.47
2018-04-14T20:44:54.301Z,51.00
2018-04-14T20:47:21.802Z,49.20
2018-04-14T20:49:49.290Z,46.47
2018-04-14T20:52:16.766Z,50.37
2018-04-14T20:54:44.296Z,52.47
2018-04-14T20:57:11.881Z,51.33
2018-04-14T20:59:39.359Z,53.30
2018-04-14T21:02:06.861Z,55.90
2018-04-14T21:04:34.403Z,54.97
2018-04-14T21:07:01.950Z,51.27
2018-04-14T21:09:29.476Z,53.50
2018-04-14T21:11:56.941Z,54.33
2018-04-14T21:14:24.491Z,59.03
2018-04-14T21:16:51.976Z,52.87
2018-04-14T21:19:19.448Z,55.43
2018-04-14T21:21:46.953Z,53.97
2018-04-14T21:24:14.489Z,54.83
2018-04-14T21:26:42.043Z,57.37
2018-04-14T21:29:09.644Z,66.73
2018-04-14T21:31:37.133Z,66.90
2018-04-14T21:34:04.657Z,56.67
2018-04-14T21:36:32.143Z,68.37
2018-04-14T21:38:59.632Z,59.50
2018-04-14T21:41:27.136Z,59.80
2018-04-14T21:43:54.660Z,59.13
2018-04-14T21:46:22.120Z,68.37
2018-04-14T21:48:49.609Z,65.60
2018-04-14T21:51:17.124Z,75.90
2018-04-14T21:53:44.607Z,82.70
2018-04-14T21:56:12.117Z,71.83
2018-04-14T21:58:39.636Z,68.03
2018-04-14T22:01:07.202Z,74.03
2018-04-14T22:03:34.705Z,63.70
2018-04-14T22:06:02.222Z,66.87
2018-04-14T22:08:29.695Z,62.83
2018-04-14T22:10:57.159Z,65.53
2018-04-14T22:13:24.647Z,72.53
2018-04-14T22:15:52.160Z,82.17
2018-04-14T22:18:19.668Z,74.93
2018-04-14T22:20:47.168Z,87.60
2018-04-14T22:23:14.661Z,73.33
2018-04-14T22:25:42.374Z,70.87
2018-04-14T22:28:09.902Z,85.60
2018-04-14T22:30:37.394Z,71.40
2018-04-14T22:33:04.919Z,130.20
2018-04-14T22:35:32.404Z,72.87
2018-04-14T22:37:59.972Z,61.37
2018-04-14T22:40:27.473Z,63.87
2018-04-14T22:42:54.981Z,65.17
2018-04-14T22:45:22.512Z,70.87
2018-04-14T22:47:50.025Z,88.53
2018-04-14T22:50:17.494Z,86.63
2018-04-14T22:52:45.012Z,77.40
2018-04-14T22:55:12.471Z,71.80
2018-04-14T22:57:39.975Z,68.67
2018-04-14T23:00:07.520Z,73.43
2018-04-14T23:02:35.071Z,72.40
2018-04-14T23:05:02.546Z,77.13
2018-04-14T23:07:30.169Z,90.30
2018-04-14T23:09:57.643Z,100.63
2018-04-14T23:12:25.225Z,84.73
2018-04-14T23:14:52.730Z,75.80
2018-04-14T23:17:20.294Z,74.40
2018-04-14T23:19:47.757Z,69.67
2018-04-14T23:22:15.281Z,71.33
2018-04-14T23:24:42.755Z,68.50
2018-04-14T23:27:10.253Z,61.50
2018-04-14T23:29:37.772Z,64.77
2018-04-14T23:32:05.307Z,68.33
2018-04-14T23:34:32.788Z,67.23
2018-04-14T23:37:00.327Z,63.67
2018-04-14T23:39:27.801Z,65.40
2018-04-14T23:41:55.346Z,66.07
2018-04-14T23:44:22.872Z,71.50
2018-04-14T23:46:50.335Z,66.77
2018-04-14T23:49:17.809Z,68.23
2018-04-14T23:51:45.272Z,66.57
2018-04-14T23:54:12.747Z,69.60
2018-04-14T23:56:40.341Z,64.87
2018-04-14T23:59:07.862Z,65.27
